createdAt,value
2019-03-19T00:00:25.631Z,0.00
2019-03-19T00:01:25.603Z,0.00
2019-03-19T00:02:25.593Z,0.00
2019-03-19T00:03:25.583Z,0.00
2019-03-19T00:04:25.569Z,0.00
2019-03-19T00:05:25.577Z,0.00
2019-03-19T00:06:25.547Z,0.00
2019-03-19T00:07:25.539Z,0.00
2019-03-19T00:08:25.524Z,0.00
2019-03-19T00:09:25.511Z,0.00
2019-03-19T00:10:25.519Z,0.00
2019-03-19T00:11:25.489Z,0.00
2019-03-19T00:12:25.479Z,0.00
2019-03-19T00:13:25.466Z,0.00
2019-03-19T00:14:25.454Z,0.00
2019-03-19T00:15:25.459Z,0.00
2019-03-19T00:16:25.432Z,0.00
2019-03-19T00:17:25.423Z,0.00
2019-03-19T00:18:25.412Z,0.00
2019-03-19T00:19:25.402Z,0.00
2019-03-19T00:20:25.405Z,0.00
2019-03-19T00:21:25.376Z,0.00
2019-03-19T00:22:25.841Z,0.00
2019-03-19T00:23:25.352Z,0.00
2019-03-19T00:24:25.343Z,0.00
2019-03-19T00:25:29.865Z,0.00
2019-03-19T00:26:26.318Z,0.00
2019-03-19T00:27:25.310Z,0.00
2019-03-19T00:28:25.293Z,0.00
2019-03-19T00:29:25.283Z,0.00
2019-03-19T00:30:25.289Z,0.00
2019-03-19T00:31:25.259Z,0.00
2019-03-19T00:32:25.256Z,0.00
2019-03-19T00:33:25.237Z,0.00
2019-03-19T00:34:25.228Z,0.00
2019-03-19T00:35:25.228Z,0.00
2019-03-19T00:36:25.203Z,0.00
2019-03-19T00:37:25.193Z,0.00
2019-03-19T00:38:25.182Z,0.00
2019-03-19T00:39:25.170Z,0.00
2019-03-19T00:40:25.172Z,0.00
2019-03-19T00:41:25.145Z,0.00
2019-03-19T00:42:25.135Z,0.00
2019-03-19T00:43:25.123Z,0.00
2019-03-19T00:44:25.113Z,0.00
2019-03-19T00:45:25.115Z,0.00
2019-03-19T00:46:25.090Z,0.00
2019-03-19T00:47:25.077Z,0.00
2019-03-19T00:48:25.066Z,0.00
2019-03-19T00:49:25.054Z,0.00
2019-03-19T00:50:25.059Z,0.00
2019-03-19T00:51:25.032Z,0.00
2019-03-19T00:52:25.020Z,0.00
2019-03-19T00:53:25.017Z,0.00
2019-03-19T00:54:25.037Z,0.00
2019-03-19T00:55:25.003Z,0.00
2019-03-19T00:56:24.974Z,0.00
2019-03-19T00:57:24.962Z,0.00
2019-03-19T00:58:24.951Z,0.00
2019-03-19T00:59:24.940Z,0.00
2019-03-19T01:00:24.945Z,0.00
2019-03-19T01:01:24.917Z,0.00
2019-03-19T01:02:24.905Z,0.00
2019-03-19T01:03:24.895Z,0.00
2019-03-19T01:04:24.882Z,0.00
2019-03-19T01:05:24.888Z,0.00
2019-03-19T01:06:24.861Z,0.00
2019-03-19T01:07:24.849Z,0.00
2019-03-19T01:08:24.841Z,0.00
2019-03-19T01:09:24.836Z,0.00
2019-03-19T01:10:24.838Z,0.00
2019-03-19T01:11:24.802Z,0.00
2019-03-19T01:12:24.792Z,0.00
2019-03-19T01:13:24.780Z,0.00
2019-03-19T01:14:24.768Z,0.00
2019-03-19T01:15:24.772Z,0.00
2019-03-19T01:16:24.749Z,0.00
2019-03-19T01:17:24.736Z,0.00
2019-03-19T01:18:24.723Z,0.00
2019-03-19T01:19:24.709Z,0.00
2019-03-19T01:20:24.716Z,0.00
2019-03-19T01:21:24.689Z,0.00
2019-03-19T01:22:24.677Z,0.00
2019-03-19T01:23:24.665Z,0.00
2019-03-19T01:24:24.656Z,0.00
2019-03-19T01:25:24.658Z,0.00
2019-03-19T01:26:24.632Z,0.00
2019-03-19T01:27:24.620Z,0.00
2019-03-19T01:28:24.608Z,0.00
2019-03-19T01:29:24.614Z,0.00
2019-03-19T01:30:24.607Z,0.00
2019-03-19T01:31:24.580Z,0.00
2019-03-19T01:32:24.563Z,0.00
2019-03-19T01:33:24.553Z,0.00
2019-03-19T01:34:24.545Z,0.00
2019-03-19T01:35:24.546Z,0.00
2019-03-19T01:36:24.517Z,0.00
2019-03-19T01:37:24.507Z,0.00
2019-03-19T01:38:24.495Z,0.00
2019-03-19T01:39:24.482Z,0.00
2019-03-19T01:40:24.489Z,0.00
2019-03-19T01:41:24.463Z,0.00
2019-03-19T01:42:24.448Z,0.00
2019-03-19T01:43:24.436Z,0.00
2019-03-19T01:44:24.425Z,0.00
2019-03-19T01:45:24.431Z,0.00
2019-03-19T01:46:24.402Z,0.00
2019-03-19T01:47:24.391Z,0.00
2019-03-19T01:48:24.379Z,0.00
2019-03-19T01:49:24.378Z,0.00
2019-03-19T01:50:24.374Z,0.00
2019-03-19T01:51:24.346Z,0.00
2019-03-19T01:52:24.337Z,0.00
2019-03-19T01:53:24.326Z,0.00
2019-03-19T01:54:24.316Z,0.00
2019-03-19T01:55:25.654Z,0.00
2019-03-19T01:56:24.290Z,0.00
2019-03-19T01:57:24.280Z,0.00
2019-03-19T01:58:24.269Z,0.00
2019-03-19T01:59:24.257Z,0.00
2019-03-19T02:00:24.260Z,0.00
2019-03-19T02:01:24.234Z,0.00
2019-03-19T02:02:24.222Z,0.00
2019-03-19T02:03:24.212Z,0.00
2019-03-19T02:04:24.198Z,0.00
2019-03-19T02:05:24.202Z,0.00
2019-03-19T02:06:24.179Z,0.00
2019-03-19T02:07:24.167Z,0.00
2019-03-19T02:08:24.155Z,0.00
2019-03-19T02:09:24.143Z,0.00
2019-03-19T02:10:24.146Z,0.00
2019-03-19T02:11:24.119Z,0.00
2019-03-19T02:12:24.108Z,0.00
2019-03-19T02:13:24.098Z,0.00
2019-03-19T02:14:24.085Z,0.00
2019-03-19T02:15:24.091Z,0.00
2019-03-19T02:16:24.065Z,0.00
2019-03-19T02:17:24.052Z,0.00
2019-03-19T02:18:24.044Z,0.00
2019-03-19T02:19:24.031Z,0.00
2019-03-19T02:20:24.034Z,0.00
2019-03-19T02:21:24.006Z,0.00
2019-03-19T02:22:23.999Z,0.00
2019-03-19T02:23:23.984Z,0.00
2019-03-19T02:24:23.972Z,0.00
2019-03-19T02:25:23.975Z,0.00
2019-03-19T02:26:23.959Z,0.00
2019-03-19T02:27:23.939Z,0.00
2019-03-19T02:28:23.927Z,0.00
2019-03-19T02:29:23.917Z,0.00
2019-03-19T02:30:23.925Z,0.00
2019-03-19T02:31:23.898Z,0.00
2019-03-19T02:32:23.888Z,0.00
2019-03-19T02:33:23.872Z,0.00
2019-03-19T02:34:23.862Z,0.00
2019-03-19T02:35:23.880Z,0.00
2019-03-19T02:36:23.841Z,0.00
2019-03-19T02:37:23.829Z,0.00
2019-03-19T02:38:23.840Z,0.00
2019-03-19T02:39:23.807Z,0.00
2019-03-19T02:40:23.813Z,0.00
2019-03-19T02:41:23.781Z,0.00
2019-03-19T02:42:23.786Z,0.00
2019-03-19T02:43:23.773Z,0.00
2019-03-19T02:44:23.754Z,0.00
2019-03-19T02:45:23.772Z,0.00
2019-03-19T02:46:32.002Z,0.00
2019-03-19T02:47:32.030Z,0.00
2019-03-19T02:48:32.073Z,0.00
2019-03-19T02:49:23.694Z,0.00
2019-03-19T02:50:32.470Z,0.00
2019-03-19T02:51:32.147Z,0.00
2019-03-19T02:52:33.686Z,0.00
2019-03-19T02:53:32.227Z,0.00
2019-03-19T02:54:23.640Z,0.00
2019-03-19T02:55:32.823Z,0.00
2019-03-19T02:56:32.683Z,0.00
2019-03-19T02:57:24.608Z,0.00
2019-03-19T02:58:23.592Z,0.00
2019-03-19T02:59:23.580Z,0.00
2019-03-19T03:00:23.583Z,0.00
2019-03-19T03:01:23.556Z,0.00
2019-03-19T03:02:23.545Z,0.00
2019-03-19T03:03:23.563Z,0.00
2019-03-19T03:04:23.525Z,0.00
2019-03-19T03:05:23.531Z,0.00
2019-03-19T03:06:23.502Z,0.00
2019-03-19T03:07:23.489Z,0.00
2019-03-19T03:08:23.481Z,0.00
2019-03-19T03:09:23.482Z,0.00
2019-03-19T03:10:23.472Z,0.00
2019-03-19T03:11:23.447Z,0.00
2019-03-19T03:12:23.436Z,0.00
2019-03-19T03:13:23.422Z,0.00
2019-03-19T03:14:23.412Z,0.00
2019-03-19T03:15:23.416Z,0.00
2019-03-19T03:16:23.389Z,0.00
2019-03-19T03:17:23.379Z,0.00
2019-03-19T03:18:23.372Z,0.00
2019-03-19T03:19:23.362Z,0.00
2019-03-19T03:20:23.362Z,0.00
2019-03-19T03:21:23.391Z,0.00
2019-03-19T03:22:23.321Z,0.00
2019-03-19T03:23:23.313Z,0.00
2019-03-19T03:24:23.299Z,0.00
2019-03-19T03:25:23.309Z,0.00
2019-03-19T03:26:23.292Z,0.00
2019-03-19T03:27:23.272Z,0.00
2019-03-19T03:28:23.254Z,0.00
2019-03-19T03:29:23.244Z,0.00
2019-03-19T03:30:23.290Z,0.00
2019-03-19T03:31:23.341Z,0.00
2019-03-19T03:32:23.219Z,0.00
2019-03-19T03:33:23.199Z,0.00
2019-03-19T03:34:23.190Z,0.00
2019-03-19T03:35:23.198Z,0.00
2019-03-19T03:36:23.165Z,0.00
2019-03-19T03:37:23.163Z,0.00
2019-03-19T03:38:23.146Z,0.00
2019-03-19T03:39:23.130Z,0.00
2019-03-19T03:40:23.140Z,0.00
2019-03-19T03:41:23.112Z,0.00
2019-03-19T03:42:23.098Z,0.00
2019-03-19T03:43:23.089Z,0.00
2019-03-19T03:44:23.073Z,0.00
2019-03-19T03:45:23.080Z,0.00
2019-03-19T03:46:23.049Z,0.00
2019-03-19T03:47:23.045Z,0.00
2019-03-19T03:48:23.030Z,0.00
2019-03-19T03:49:23.019Z,0.00
2019-03-19T03:50:23.026Z,0.00
2019-03-19T03:51:22.994Z,0.00
2019-03-19T03:52:22.986Z,0.00
2019-03-19T03:53:22.972Z,0.00
2019-03-19T03:54:22.965Z,0.00
2019-03-19T03:55:22.965Z,0.00
2019-03-19T03:56:22.940Z,0.00
2019-03-19T03:57:22.933Z,0.00
2019-03-19T03:58:22.920Z,0.00
2019-03-19T03:59:22.905Z,0.00
2019-03-19T04:00:22.908Z,0.00
2019-03-19T04:01:22.882Z,0.00
2019-03-19T04:02:22.873Z,0.00
2019-03-19T04:03:22.865Z,0.00
2019-03-19T04:04:22.861Z,0.00
2019-03-19T04:05:22.918Z,0.00
2019-03-19T04:06:22.826Z,0.00
2019-03-19T04:07:22.846Z,0.00
2019-03-19T04:08:22.811Z,0.00
2019-03-19T04:09:22.793Z,0.00
2019-03-19T04:10:22.801Z,0.00
2019-03-19T04:11:22.770Z,0.00
2019-03-19T04:12:22.760Z,0.00
2019-03-19T04:13:22.754Z,0.00
2019-03-19T04:14:22.744Z,0.00
2019-03-19T04:15:22.753Z,0.00
2019-03-19T04:16:22.724Z,0.00
2019-03-19T04:17:22.704Z,0.00
2019-03-19T04:18:22.709Z,0.00
2019-03-19T04:19:22.684Z,0.00
2019-03-19T04:20:22.701Z,0.00
2019-03-19T04:21:22.658Z,0.00
2019-03-19T04:22:22.651Z,0.00
2019-03-19T04:23:22.648Z,0.00
2019-03-19T04:24:22.629Z,0.00
2019-03-19T04:25:22.633Z,0.00
2019-03-19T04:26:22.616Z,0.00
2019-03-19T04:27:22.593Z,0.00
2019-03-19T04:28:22.580Z,0.00
2019-03-19T04:29:22.568Z,0.00
2019-03-19T04:30:22.573Z,0.00
2019-03-19T04:31:22.552Z,0.00
2019-03-19T04:32:22.543Z,0.00
2019-03-19T04:33:22.533Z,0.00
2019-03-19T04:34:22.514Z,0.00
2019-03-19T04:35:22.517Z,0.00
2019-03-19T04:36:22.494Z,0.00
2019-03-19T04:37:22.482Z,0.00
2019-03-19T04:38:22.474Z,0.00
2019-03-19T04:39:22.463Z,0.00
2019-03-19T04:40:22.463Z,0.00
2019-03-19T04:41:22.434Z,0.00
2019-03-19T04:42:22.422Z,0.00
2019-03-19T04:43:22.412Z,0.00
2019-03-19T04:44:22.400Z,0.00
2019-03-19T04:45:22.404Z,0.00
2019-03-19T04:46:22.377Z,0.00
2019-03-19T04:47:22.369Z,0.00
2019-03-19T04:48:22.360Z,0.00
2019-03-19T04:49:22.343Z,0.00
2019-03-19T04:50:22.347Z,0.00
2019-03-19T04:51:22.321Z,0.00
2019-03-19T04:52:22.311Z,0.00
2019-03-19T04:53:24.230Z,0.00
2019-03-19T04:54:22.287Z,0.00
2019-03-19T04:55:22.293Z,0.00
2019-03-19T04:56:22.270Z,0.00
2019-03-19T04:57:26.720Z,0.00
2019-03-19T04:58:22.246Z,0.00
2019-03-19T04:59:22.235Z,0.00
2019-03-19T05:00:22.236Z,0.00
2019-03-19T05:01:22.212Z,0.00
2019-03-19T05:02:22.198Z,0.00
2019-03-19T05:03:22.186Z,0.00
2019-03-19T05:04:22.175Z,0.00
2019-03-19T05:05:22.178Z,0.00
2019-03-19T05:06:22.211Z,0.00
2019-03-19T05:07:22.141Z,0.00
2019-03-19T05:08:22.131Z,0.00
2019-03-19T05:09:22.116Z,0.00
2019-03-19T05:10:22.123Z,0.00
2019-03-19T05:11:22.098Z,0.00
2019-03-19T05:12:22.083Z,0.00
2019-03-19T05:13:22.075Z,0.00
2019-03-19T05:14:22.072Z,0.00
2019-03-19T05:15:22.068Z,0.00
2019-03-19T05:16:22.039Z,0.00
2019-03-19T05:17:22.030Z,0.00
2019-03-19T05:18:22.018Z,0.00
2019-03-19T05:19:22.006Z,0.00
2019-03-19T05:20:22.009Z,0.00
2019-03-19T05:21:21.985Z,0.00
2019-03-19T05:22:21.971Z,0.00
2019-03-19T05:23:21.959Z,0.00
2019-03-19T05:24:21.953Z,0.00
2019-03-19T05:25:21.951Z,0.00
2019-03-19T05:26:21.926Z,0.00
2019-03-19T05:27:21.917Z,0.00
2019-03-19T05:28:21.903Z,0.00
2019-03-19T05:29:21.896Z,0.00
2019-03-19T05:30:21.896Z,0.00
2019-03-19T05:31:21.870Z,0.00
2019-03-19T05:32:21.862Z,0.00
2019-03-19T05:33:21.847Z,0.00
2019-03-19T05:34:21.837Z,0.00
2019-03-19T05:35:21.845Z,0.00
2019-03-19T05:36:21.815Z,0.00
2019-03-19T05:37:21.804Z,5.62
2019-03-19T05:38:21.791Z,5.62
2019-03-19T05:39:21.782Z,5.62
2019-03-19T05:40:21.786Z,5.62
2019-03-19T05:41:21.760Z,5.62
2019-03-19T05:42:21.747Z,5.62
2019-03-19T05:43:21.736Z,5.62
2019-03-19T05:44:21.731Z,11.25
2019-03-19T05:45:21.735Z,11.25
2019-03-19T05:46:21.702Z,11.25
2019-03-19T05:47:21.690Z,5.62
2019-03-19T05:48:21.680Z,5.62
2019-03-19T05:49:21.669Z,5.62
2019-03-19T05:50:21.677Z,5.62
2019-03-19T05:51:21.648Z,5.62
2019-03-19T05:52:21.640Z,5.62
2019-03-19T05:53:21.624Z,5.62
2019-03-19T05:54:21.611Z,11.25
2019-03-19T05:55:21.620Z,11.25
2019-03-19T05:56:21.590Z,11.25
2019-03-19T05:57:21.578Z,11.25
2019-03-19T05:58:21.567Z,16.88
2019-03-19T05:59:21.555Z,16.88
2019-03-19T06:00:21.562Z,16.88
2019-03-19T06:01:21.534Z,11.25
2019-03-19T06:02:21.522Z,11.25
2019-03-19T06:03:21.514Z,16.88
2019-03-19T06:04:21.503Z,16.88
2019-03-19T06:05:21.658Z,16.88
2019-03-19T06:06:21.474Z,16.88
2019-03-19T06:07:21.464Z,16.88
2019-03-19T06:08:21.454Z,16.88
2019-03-19T06:09:21.443Z,22.50
2019-03-19T06:10:21.445Z,22.50
2019-03-19T06:11:21.420Z,28.12
2019-03-19T06:12:21.453Z,28.12
2019-03-19T06:13:21.396Z,33.75
2019-03-19T06:14:21.386Z,33.75
2019-03-19T06:15:21.394Z,33.75
2019-03-19T06:16:21.365Z,33.75
2019-03-19T06:17:21.352Z,33.75
2019-03-19T06:18:21.340Z,39.38
2019-03-19T06:19:21.329Z,45.00
2019-03-19T06:20:21.335Z,67.50
2019-03-19T06:21:21.307Z,50.62
2019-03-19T06:22:21.296Z,45.00
2019-03-19T06:23:21.286Z,45.00
2019-03-19T06:24:21.789Z,45.00
2019-03-19T06:25:21.306Z,45.00
2019-03-19T06:26:21.271Z,45.00
2019-03-19T06:27:21.254Z,45.00
2019-03-19T06:28:21.230Z,45.00
2019-03-19T06:29:21.218Z,45.00
2019-03-19T06:30:21.233Z,45.00
2019-03-19T06:31:21.197Z,45.00
2019-03-19T06:32:21.183Z,45.00
2019-03-19T06:33:21.193Z,45.00
2019-03-19T06:34:21.160Z,39.38
2019-03-19T06:35:21.164Z,33.75
2019-03-19T06:36:21.141Z,28.12
2019-03-19T06:37:21.128Z,33.75
2019-03-19T06:38:21.119Z,28.12
2019-03-19T06:39:21.105Z,28.12
2019-03-19T06:40:21.115Z,22.50
2019-03-19T06:41:21.082Z,22.50
2019-03-19T06:42:21.070Z,16.88
2019-03-19T06:43:21.060Z,22.50
2019-03-19T06:44:21.050Z,22.50
2019-03-19T06:45:23.029Z,28.12
2019-03-19T06:46:21.026Z,33.75
2019-03-19T06:47:21.017Z,33.75
2019-03-19T06:48:21.004Z,39.38
2019-03-19T06:49:21.001Z,45.00
2019-03-19T06:50:21.023Z,45.00
2019-03-19T06:51:20.969Z,50.62
2019-03-19T06:52:20.962Z,61.88
2019-03-19T06:53:20.950Z,67.50
2019-03-19T06:54:20.937Z,73.12
2019-03-19T06:55:20.942Z,78.75
2019-03-19T06:56:20.913Z,78.75
2019-03-19T06:57:20.902Z,78.75
2019-03-19T06:58:20.891Z,84.38
2019-03-19T06:59:20.881Z,84.38
2019-03-19T07:00:20.885Z,95.62
2019-03-19T07:01:20.859Z,112.50
2019-03-19T07:02:20.845Z,140.62
2019-03-19T07:03:20.838Z,140.62
2019-03-19T07:04:20.824Z,140.62
2019-03-19T07:05:20.833Z,140.62
2019-03-19T07:06:20.804Z,123.75
2019-03-19T07:07:20.798Z,106.88
2019-03-19T07:08:20.779Z,101.25
2019-03-19T07:09:20.770Z,95.62
2019-03-19T07:10:20.772Z,95.62
2019-03-19T07:11:20.747Z,90.00
2019-03-19T07:12:20.736Z,95.62
2019-03-19T07:13:20.722Z,106.88
2019-03-19T07:14:20.715Z,106.88
2019-03-19T07:15:20.715Z,112.50
2019-03-19T07:16:20.687Z,118.12
2019-03-19T07:17:20.676Z,118.12
2019-03-19T07:18:20.664Z,101.25
2019-03-19T07:19:20.654Z,95.62
2019-03-19T07:20:20.662Z,106.88
2019-03-19T07:21:20.631Z,118.12
2019-03-19T07:22:20.630Z,129.38
2019-03-19T07:23:20.611Z,140.62
2019-03-19T07:24:20.597Z,157.50
2019-03-19T07:25:20.600Z,157.50
2019-03-19T07:26:20.572Z,196.88
2019-03-19T07:27:20.561Z,309.38
2019-03-19T07:28:22.315Z,258.75
2019-03-19T07:29:20.537Z,163.12
2019-03-19T07:30:20.545Z,196.88
2019-03-19T07:31:30.350Z,315.00
2019-03-19T07:32:21.505Z,376.88
2019-03-19T07:33:20.526Z,483.75
2019-03-19T07:34:20.483Z,506.25
2019-03-19T07:35:20.566Z,506.25
2019-03-19T07:36:20.458Z,511.88
2019-03-19T07:37:20.448Z,540.00
2019-03-19T07:38:20.448Z,551.25
2019-03-19T07:39:20.425Z,517.50
2019-03-19T07:40:20.429Z,472.50
2019-03-19T07:41:20.402Z,562.50
2019-03-19T07:42:20.390Z,427.50
2019-03-19T07:43:20.381Z,253.12
2019-03-19T07:44:20.368Z,264.38
2019-03-19T07:45:20.372Z,371.25
2019-03-19T07:46:20.352Z,348.75
2019-03-19T07:47:20.334Z,185.62
2019-03-19T07:48:20.323Z,191.25
2019-03-19T07:49:20.311Z,258.75
2019-03-19T07:50:20.316Z,191.25
2019-03-19T07:51:20.308Z,123.75
2019-03-19T07:52:20.275Z,106.88
2019-03-19T07:53:20.266Z,157.50
2019-03-19T07:54:20.252Z,270.00
2019-03-19T07:55:20.261Z,573.75
2019-03-19T07:56:20.231Z,562.50
2019-03-19T07:57:20.219Z,556.88
2019-03-19T07:58:31.355Z,219.38
2019-03-19T07:59:21.195Z,556.88
2019-03-19T08:00:20.203Z,562.50
2019-03-19T08:01:20.173Z,568.12
2019-03-19T08:02:20.160Z,562.50
2019-03-19T08:03:20.150Z,568.12
2019-03-19T08:04:20.140Z,562.50
2019-03-19T08:05:20.149Z,573.75
2019-03-19T08:06:20.115Z,568.12
2019-03-19T08:07:20.106Z,573.75
2019-03-19T08:08:20.095Z,579.38
2019-03-19T08:09:20.170Z,573.75
2019-03-19T08:10:20.089Z,573.75
2019-03-19T08:11:20.058Z,573.75
2019-03-19T08:12:20.047Z,568.12
2019-03-19T08:13:20.037Z,573.75
2019-03-19T08:14:20.026Z,573.75
2019-03-19T08:15:20.043Z,573.75
2019-03-19T08:16:27.273Z,590.62
2019-03-19T08:17:21.040Z,607.50
2019-03-19T08:18:19.980Z,652.50
2019-03-19T08:19:19.978Z,691.88
2019-03-19T08:20:19.975Z,686.25
2019-03-19T08:21:19.954Z,500.62
2019-03-19T08:22:20.018Z,180.00
2019-03-19T08:23:19.922Z,168.75
2019-03-19T08:24:19.910Z,163.12
2019-03-19T08:25:19.918Z,163.12
2019-03-19T08:26:19.891Z,180.00
2019-03-19T08:27:19.877Z,191.25
2019-03-19T08:28:19.866Z,208.12
2019-03-19T08:29:19.855Z,236.25
2019-03-19T08:30:19.868Z,258.75
2019-03-19T08:31:19.831Z,298.12
2019-03-19T08:32:19.821Z,275.62
2019-03-19T08:33:19.814Z,298.12
2019-03-19T08:34:19.797Z,258.75
2019-03-19T08:35:19.804Z,219.38
2019-03-19T08:36:19.776Z,658.12
2019-03-19T08:37:19.763Z,635.62
2019-03-19T08:38:19.754Z,635.62
2019-03-19T08:39:20.805Z,596.25
2019-03-19T08:40:19.748Z,382.50
2019-03-19T08:41:19.724Z,360.00
2019-03-19T08:42:19.710Z,331.88
2019-03-19T08:43:20.448Z,292.50
2019-03-19T08:44:27.490Z,337.50
2019-03-19T08:45:20.688Z,258.75
2019-03-19T08:46:19.664Z,292.50
2019-03-19T08:47:19.650Z,343.12
2019-03-19T08:48:19.639Z,393.75
2019-03-19T08:49:19.629Z,720.00
2019-03-19T08:50:19.631Z,309.38
2019-03-19T08:51:19.605Z,174.38
2019-03-19T08:52:19.594Z,151.88
2019-03-19T08:53:19.583Z,191.25
2019-03-19T08:54:19.576Z,213.75
2019-03-19T08:55:19.575Z,365.62
2019-03-19T08:56:19.548Z,163.12
2019-03-19T08:57:19.548Z,157.50
2019-03-19T08:58:19.531Z,180.00
2019-03-19T08:59:19.514Z,180.00
2019-03-19T09:00:19.524Z,157.50
2019-03-19T09:01:19.494Z,118.12
2019-03-19T09:02:19.481Z,95.62
2019-03-19T09:03:19.469Z,84.38
2019-03-19T09:04:19.459Z,78.75
2019-03-19T09:05:19.473Z,61.88
2019-03-19T09:06:19.436Z,50.62
2019-03-19T09:07:20.180Z,56.25
2019-03-19T09:08:19.413Z,67.50
2019-03-19T09:09:19.403Z,73.12
2019-03-19T09:10:19.406Z,73.12
2019-03-19T09:11:19.378Z,61.88
2019-03-19T09:12:19.369Z,73.12
2019-03-19T09:13:19.362Z,90.00
2019-03-19T09:14:19.346Z,112.50
2019-03-19T09:15:19.350Z,123.75
2019-03-19T09:16:19.321Z,146.25
2019-03-19T09:17:19.316Z,151.88
2019-03-19T09:18:19.300Z,140.62
2019-03-19T09:19:19.288Z,135.00
2019-03-19T09:20:19.295Z,112.50
2019-03-19T09:21:19.271Z,101.25
2019-03-19T09:22:19.966Z,84.38
2019-03-19T09:23:19.241Z,61.88
2019-03-19T09:24:19.235Z,39.38
2019-03-19T09:25:19.235Z,28.12
2019-03-19T09:26:19.208Z,22.50
2019-03-19T09:27:19.198Z,22.50
2019-03-19T09:28:19.185Z,22.50
2019-03-19T09:29:19.174Z,28.12
2019-03-19T09:30:19.198Z,28.12
2019-03-19T09:31:19.159Z,28.12
2019-03-19T09:32:19.140Z,28.12
2019-03-19T09:33:19.129Z,33.75
2019-03-19T09:34:19.117Z,33.75
2019-03-19T09:35:19.125Z,33.75
2019-03-19T09:36:19.096Z,33.75
2019-03-19T09:37:19.083Z,39.38
2019-03-19T09:38:19.078Z,39.38
2019-03-19T09:39:19.062Z,61.88
2019-03-19T09:40:19.069Z,84.38
2019-03-19T09:41:19.038Z,90.00
2019-03-19T09:42:19.027Z,101.25
2019-03-19T09:43:19.019Z,112.50
2019-03-19T09:44:19.005Z,112.50
2019-03-19T09:45:19.045Z,112.50
2019-03-19T09:46:18.981Z,112.50
2019-03-19T09:47:18.970Z,123.75
2019-03-19T09:48:18.959Z,146.25
2019-03-19T09:49:21.078Z,174.38
2019-03-19T09:50:18.955Z,196.88
2019-03-19T09:51:18.925Z,219.38
2019-03-19T09:52:18.919Z,241.88
2019-03-19T09:53:18.978Z,258.75
2019-03-19T09:54:19.828Z,270.00
2019-03-19T09:55:18.906Z,292.50
2019-03-19T09:56:18.870Z,281.25
2019-03-19T09:57:18.859Z,292.50
2019-03-19T09:58:18.845Z,281.25
2019-03-19T09:59:26.756Z,326.25
2019-03-19T10:00:19.837Z,343.12
2019-03-19T10:01:18.815Z,883.12
2019-03-19T10:02:18.800Z,826.88
2019-03-19T10:03:18.788Z,551.25
2019-03-19T10:04:18.777Z,455.62
2019-03-19T10:05:18.792Z,393.75
2019-03-19T10:06:18.757Z,303.75
2019-03-19T10:07:18.745Z,303.75
2019-03-19T10:08:18.733Z,483.75
2019-03-19T10:09:18.721Z,326.25
2019-03-19T10:10:18.767Z,753.75
2019-03-19T10:11:18.698Z,765.00
2019-03-19T10:12:18.686Z,759.38
2019-03-19T10:13:18.682Z,753.75
2019-03-19T10:14:18.666Z,753.75
2019-03-19T10:15:18.679Z,753.75
2019-03-19T10:16:18.642Z,753.75
2019-03-19T10:17:18.629Z,753.75
2019-03-19T10:18:18.618Z,759.38
2019-03-19T10:19:18.608Z,798.75
2019-03-19T10:20:18.615Z,838.12
2019-03-19T10:21:18.585Z,945.00
2019-03-19T10:22:18.573Z,973.12
2019-03-19T10:23:18.561Z,1023.75
2019-03-19T10:24:18.549Z,1423.12
2019-03-19T10:25:18.575Z,1760.62
2019-03-19T10:26:18.530Z,1906.88
2019-03-19T10:27:19.642Z,1839.38
2019-03-19T10:28:18.505Z,646.88
2019-03-19T10:29:18.497Z,2171.25
2019-03-19T10:30:18.500Z,1957.50
2019-03-19T10:31:18.472Z,590.62
2019-03-19T10:32:18.460Z,298.12
2019-03-19T10:33:18.447Z,2373.75
2019-03-19T10:34:18.437Z,2441.25
2019-03-19T10:35:18.443Z,2503.12
2019-03-19T10:36:18.417Z,2531.25
2019-03-19T10:37:18.403Z,2503.12
2019-03-19T10:38:18.393Z,2075.62
2019-03-19T10:39:18.380Z,2660.62
2019-03-19T10:40:18.385Z,2638.12
2019-03-19T10:41:18.360Z,2621.25
2019-03-19T10:42:18.347Z,2576.25
2019-03-19T10:43:18.378Z,2576.25
2019-03-19T10:44:18.323Z,2520.00
2019-03-19T10:45:18.338Z,2649.38
2019-03-19T10:46:18.331Z,2761.88
2019-03-19T10:47:18.290Z,2773.12
2019-03-19T10:48:18.279Z,2823.75
2019-03-19T10:49:18.269Z,2795.62
2019-03-19T10:50:18.273Z,2722.50
2019-03-19T10:51:18.245Z,2806.88
2019-03-19T10:52:18.250Z,2840.62
2019-03-19T10:53:18.229Z,2801.25
2019-03-19T10:54:18.211Z,2688.75
2019-03-19T10:55:18.219Z,2874.38
2019-03-19T10:56:18.197Z,2874.38
2019-03-19T10:57:18.178Z,2818.12
2019-03-19T10:58:18.174Z,2891.25
2019-03-19T10:59:18.156Z,3026.25
2019-03-19T11:00:18.170Z,3015.00
2019-03-19T11:01:18.134Z,3003.75
2019-03-19T11:02:18.124Z,2913.75
2019-03-19T11:03:18.119Z,2098.12
2019-03-19T11:04:18.101Z,2941.88
2019-03-19T11:05:18.109Z,3099.38
2019-03-19T11:06:18.083Z,2975.62
2019-03-19T11:07:18.069Z,2846.25
2019-03-19T11:08:18.058Z,3031.88
2019-03-19T11:09:18.045Z,3195.00
2019-03-19T11:10:18.050Z,3262.50
2019-03-19T11:11:18.022Z,292.50
2019-03-19T11:12:18.010Z,219.38
2019-03-19T11:13:18.002Z,140.62
2019-03-19T11:14:17.990Z,140.62
2019-03-19T11:15:17.993Z,140.62
2019-03-19T11:16:17.967Z,123.75
2019-03-19T11:17:17.957Z,106.88
2019-03-19T11:18:17.946Z,90.00
2019-03-19T11:19:17.935Z,90.00
2019-03-19T11:20:17.941Z,90.00
2019-03-19T11:21:17.912Z,84.38
2019-03-19T11:22:17.909Z,78.75
2019-03-19T11:23:17.889Z,73.12
2019-03-19T11:24:17.880Z,73.12
2019-03-19T11:25:17.883Z,67.50
2019-03-19T11:26:17.857Z,56.25
2019-03-19T11:27:17.846Z,56.25
2019-03-19T11:28:17.834Z,61.88
2019-03-19T11:29:17.825Z,61.88
2019-03-19T11:30:17.828Z,56.25
2019-03-19T11:31:17.800Z,50.62
2019-03-19T11:32:17.790Z,50.62
2019-03-19T11:33:17.776Z,50.62
2019-03-19T11:34:17.766Z,56.25
2019-03-19T11:35:17.774Z,56.25
2019-03-19T11:36:17.746Z,61.88
2019-03-19T11:37:17.735Z,56.25
2019-03-19T11:38:17.723Z,61.88
2019-03-19T11:39:17.711Z,61.88
2019-03-19T11:40:17.718Z,67.50
2019-03-19T11:41:17.687Z,67.50
2019-03-19T11:42:17.681Z,61.88
2019-03-19T11:43:17.664Z,56.25
2019-03-19T11:44:17.652Z,50.62
2019-03-19T11:45:17.658Z,39.38
2019-03-19T11:46:17.629Z,33.75
2019-03-19T11:47:17.620Z,33.75
2019-03-19T11:48:17.606Z,28.12
2019-03-19T11:49:17.596Z,28.12
2019-03-19T11:50:17.603Z,28.12
2019-03-19T11:51:17.573Z,28.12
2019-03-19T11:52:17.560Z,28.12
2019-03-19T11:53:17.554Z,28.12
2019-03-19T11:54:17.538Z,33.75
2019-03-19T11:55:17.542Z,39.38
2019-03-19T11:56:17.523Z,45.00
2019-03-19T11:57:17.507Z,50.62
2019-03-19T11:58:17.495Z,50.62
2019-03-19T11:59:17.482Z,50.62
2019-03-19T12:00:17.485Z,56.25
2019-03-19T12:01:17.461Z,56.25
2019-03-19T12:02:25.535Z,61.88
2019-03-19T12:03:18.436Z,61.88
2019-03-19T12:04:17.426Z,61.88
2019-03-19T12:05:17.430Z,67.50
2019-03-19T12:06:17.407Z,73.12
2019-03-19T12:07:17.391Z,78.75
2019-03-19T12:08:17.380Z,84.38
2019-03-19T12:09:17.368Z,90.00
2019-03-19T12:10:17.377Z,90.00
2019-03-19T12:11:17.345Z,90.00
2019-03-19T12:12:17.339Z,90.00
2019-03-19T12:13:17.322Z,95.62
2019-03-19T12:14:17.312Z,95.62
2019-03-19T12:15:17.319Z,118.12
2019-03-19T12:16:17.290Z,123.75
2019-03-19T12:17:17.277Z,106.88
2019-03-19T12:18:17.267Z,90.00
2019-03-19T12:19:17.256Z,90.00
2019-03-19T12:20:17.259Z,90.00
2019-03-19T12:21:17.232Z,101.25
2019-03-19T12:22:17.219Z,112.50
2019-03-19T12:23:17.215Z,106.88
2019-03-19T12:24:17.197Z,101.25
2019-03-19T12:25:17.201Z,106.88
2019-03-19T12:26:17.175Z,135.00
2019-03-19T12:27:17.163Z,151.88
2019-03-19T12:28:17.151Z,168.75
2019-03-19T12:29:17.140Z,225.00
2019-03-19T12:30:22.089Z,241.88
2019-03-19T12:31:18.117Z,253.12
2019-03-19T12:32:17.111Z,264.38
2019-03-19T12:33:17.096Z,270.00
2019-03-19T12:34:17.083Z,264.38
2019-03-19T12:35:17.090Z,258.75
2019-03-19T12:36:17.066Z,253.12
2019-03-19T12:37:17.049Z,258.75
2019-03-19T12:38:17.039Z,258.75
2019-03-19T12:39:17.030Z,258.75
2019-03-19T12:40:17.035Z,258.75
2019-03-19T12:41:17.004Z,253.12
2019-03-19T12:42:16.992Z,241.88
2019-03-19T12:43:16.983Z,230.62
2019-03-19T12:44:17.000Z,253.12
2019-03-19T12:45:16.974Z,241.88
2019-03-19T12:46:16.947Z,236.25
2019-03-19T12:47:16.951Z,225.00
2019-03-19T12:48:16.924Z,219.38
2019-03-19T12:49:16.912Z,196.88
2019-03-19T12:50:16.914Z,191.25
2019-03-19T12:51:16.893Z,168.75
2019-03-19T12:52:16.879Z,146.25
2019-03-19T12:53:16.869Z,118.12
2019-03-19T12:54:16.855Z,101.25